createdAt,value
2022-11-08T00:00:44.953Z,97563.66
2022-11-08T00:03:13.169Z,97570.88
2022-11-08T00:05:59.836Z,97570.75
2022-11-08T00:08:46.265Z,97561.44
2022-11-08T00:11:32.841Z,97559.78
2022-11-08T00:14:00.908Z,97558.75
2022-11-08T00:16:29.848Z,97552.97
2022-11-08T00:18:58.276Z,97547.63
2022-11-08T00:21:26.609Z,97555.06
2022-11-08T00:23:54.678Z,97558.13
2022-11-08T00:26:23.019Z,97545.47
2022-11-08T00:28:51.082Z,97552.03
2022-11-08T00:31:19.173Z,97543.16
2022-11-08T00:33:47.138Z,97549.16
2022-11-08T00:36:15.343Z,97549.00
2022-11-08T00:38:44.493Z,97539.94
2022-11-08T00:41:13.066Z,97532.75
2022-11-08T00:43:41.136Z,97525.91
2022-11-08T00:46:09.471Z,97533.13
2022-11-08T00:48:38.142Z,97535.97
2022-11-08T00:51:10.198Z,97540.66
2022-11-08T00:53:40.079Z,97533.38
2022-11-08T00:56:12.124Z,97531.06
2022-11-08T00:58:44.092Z,97522.56
2022-11-08T01:01:16.758Z,97516.41
2022-11-08T01:03:45.955Z,97520.75
2022-11-08T01:06:16.811Z,97510.69
2022-11-08T01:08:45.242Z,97519.38
2022-11-08T01:11:17.294Z,97513.19
2022-11-08T01:13:46.089Z,97512.34
2022-11-08T01:16:22.117Z,97508.66
2022-11-08T01:18:53.172Z,97509.31
2022-11-08T01:21:22.105Z,97503.50
2022-11-08T01:23:50.656Z,97504.06
2022-11-08T01:26:26.066Z,97503.75
2022-11-08T01:28:55.703Z,97516.31
2022-11-08T01:31:30.517Z,97511.13
2022-11-08T01:33:59.905Z,97508.28
2022-11-08T01:36:29.677Z,97510.78
2022-11-08T01:38:58.359Z,97508.13
2022-11-08T01:41:28.006Z,97505.44
2022-11-08T01:43:59.328Z,97498.06
2022-11-08T01:46:42.774Z,97494.34
2022-11-08T01:49:26.589Z,97487.38
2022-11-08T01:52:15.437Z,97486.91
2022-11-08T01:55:02.462Z,97487.25
2022-11-08T01:57:57.909Z,97476.72
2022-11-08T02:00:25.971Z,97466.25
2022-11-08T02:03:01.983Z,97469.75
2022-11-08T02:05:31.616Z,97466.75
2022-11-08T02:08:27.421Z,97461.66
2022-11-08T02:10:55.640Z,97455.50
2022-11-08T02:13:30.663Z,97442.47
2022-11-08T02:15:59.115Z,97445.06
2022-11-08T02:18:30.191Z,97443.84
2022-11-08T02:21:36.670Z,97442.94
2022-11-08T02:24:11.846Z,97433.91
2022-11-08T02:26:40.887Z,97435.75
2022-11-08T02:29:36.091Z,97426.44
2022-11-08T02:32:05.971Z,97427.44
2022-11-08T02:34:49.403Z,97426.78
2022-11-08T02:37:20.500Z,97427.81
2022-11-08T02:39:48.702Z,97425.22
2022-11-08T02:42:20.253Z,97419.22
2022-11-08T02:44:48.342Z,97415.91
2022-11-08T02:47:16.916Z,97420.06
2022-11-08T02:49:44.978Z,97412.06
2022-11-08T02:52:13.312Z,97417.19
2022-11-08T02:54:41.383Z,97414.34
2022-11-08T02:57:09.480Z,97415.63
2022-11-08T02:59:37.668Z,97408.44
2022-11-08T03:02:05.839Z,97410.47
2022-11-08T03:04:33.963Z,97408.66
2022-11-08T03:07:02.154Z,97415.00
2022-11-08T03:09:30.246Z,97404.13
2022-11-08T03:11:58.339Z,97403.00
2022-11-08T03:14:26.411Z,97409.91
2022-11-08T03:16:54.509Z,97408.44
2022-11-08T03:19:22.572Z,97409.91
2022-11-08T03:21:50.659Z,97407.06
2022-11-08T03:24:18.734Z,97405.84
2022-11-08T03:26:46.833Z,97413.06
2022-11-08T03:29:14.896Z,97405.22
2022-11-08T03:31:42.992Z,97402.91
2022-11-08T03:34:11.542Z,97416.63
2022-11-08T03:36:39.638Z,97408.97
2022-11-08T03:39:07.949Z,97407.00
2022-11-08T03:41:36.038Z,97413.56
2022-11-08T03:44:04.241Z,97409.03
2022-11-08T03:46:32.329Z,97410.53
2022-11-08T03:49:00.397Z,97407.50
2022-11-08T03:51:28.494Z,97406.50
2022-11-08T03:53:56.558Z,97399.31
2022-11-08T03:56:24.895Z,97408.13
2022-11-08T03:58:52.963Z,97397.84
2022-11-08T04:01:21.146Z,97408.69
2022-11-08T04:03:49.250Z,97398.47
2022-11-08T04:06:17.347Z,97403.16
2022-11-08T04:08:45.413Z,97398.66
2022-11-08T04:11:31.976Z,97396.97
2022-11-08T04:14:18.906Z,97396.97
2022-11-08T04:16:47.039Z,97394.31
2022-11-08T04:19:33.423Z,97387.78
2022-11-08T04:22:01.524Z,97390.25
2022-11-08T04:24:29.592Z,97381.44
2022-11-08T04:26:57.919Z,97390.63
2022-11-08T04:29:26.473Z,97379.41
2022-11-08T04:31:54.676Z,97378.41
2022-11-08T04:34:22.878Z,97365.88
2022-11-08T04:36:50.970Z,97369.84
2022-11-08T04:39:19.284Z,97361.91
2022-11-08T04:41:47.383Z,97364.09
2022-11-08T04:44:18.461Z,97354.81
2022-11-08T04:46:46.546Z,97363.28
2022-11-08T04:49:14.612Z,97352.59
2022-11-08T04:51:42.736Z,97351.94
2022-11-08T04:54:11.861Z,97353.97
2022-11-08T04:56:41.752Z,97347.59
2022-11-08T04:59:12.109Z,97347.03
2022-11-08T05:01:40.702Z,97343.56
2022-11-08T05:04:08.986Z,97337.66
2022-11-08T05:06:37.077Z,97340.81
2022-11-08T05:09:05.270Z,97337.31
2022-11-08T05:11:33.594Z,97337.97
2022-11-08T05:14:01.677Z,97326.88
2022-11-08T05:16:32.404Z,97332.63
2022-11-08T05:19:01.204Z,97333.72
2022-11-08T05:21:48.019Z,97328.19
2022-11-08T05:24:18.247Z,97327.81
2022-11-08T05:26:48.373Z,97335.75
2022-11-08T05:29:17.548Z,97329.69
2022-11-08T05:31:45.622Z,97335.84
2022-11-08T05:34:13.697Z,97323.13
2022-11-08T05:36:41.785Z,97337.13
2022-11-08T05:39:10.120Z,97337.78
2022-11-08T05:41:38.198Z,97331.22
2022-11-08T05:44:06.385Z,97325.97
2022-11-08T05:46:35.429Z,97327.47
2022-11-08T05:49:03.523Z,97326.28
2022-11-08T05:51:32.323Z,97329.59
2022-11-08T05:54:00.400Z,97337.13
2022-11-08T05:56:28.503Z,97331.16
2022-11-08T05:58:56.680Z,97319.81
2022-11-08T06:01:24.798Z,97322.31
2022-11-08T06:03:52.858Z,97315.28
2022-11-08T06:06:22.383Z,97312.63
2022-11-08T06:08:51.789Z,97320.16
2022-11-08T06:11:24.668Z,97317.16
2022-11-08T06:13:54.185Z,97309.94
2022-11-08T06:16:23.963Z,97309.47
2022-11-08T06:18:52.522Z,97323.31
2022-11-08T06:21:21.902Z,97319.34
2022-11-08T06:23:54.694Z,97327.53
2022-11-08T06:26:25.758Z,97321.19
2022-11-08T06:28:53.829Z,97329.22
2022-11-08T06:31:22.059Z,97322.00
2022-11-08T06:33:50.599Z,97317.50
2022-11-08T06:36:21.207Z,97314.38
2022-11-08T06:38:54.571Z,97320.16
2022-11-08T06:41:23.498Z,97312.81
2022-11-08T06:43:51.584Z,97307.84
2022-11-08T06:46:20.015Z,97315.69
2022-11-08T06:48:49.407Z,97311.44
2022-11-08T06:51:19.184Z,97320.53
2022-11-08T06:53:47.268Z,97318.81
2022-11-08T06:56:15.347Z,97324.97
2022-11-08T06:58:43.656Z,97320.28
2022-11-08T07:01:12.269Z,97325.09
2022-11-08T07:03:40.318Z,97318.53
2022-11-08T07:06:08.757Z,97331.25
2022-11-08T07:08:36.961Z,97332.44
2022-11-08T07:11:05.645Z,97330.78
2022-11-08T07:13:33.835Z,97339.44
2022-11-08T07:16:02.767Z,97335.13
2022-11-08T07:18:30.962Z,97333.44
2022-11-08T07:21:03.359Z,97337.63
2022-11-08T07:23:32.411Z,97338.63
2022-11-08T07:26:05.541Z,97340.75
2022-11-08T07:28:33.615Z,97331.06
2022-11-08T07:31:05.170Z,97330.03
2022-11-08T07:33:33.747Z,97329.50
2022-11-08T07:36:02.065Z,97328.69
2022-11-08T07:38:30.618Z,97326.38
2022-11-08T07:41:01.359Z,97327.75
2022-11-08T07:43:30.551Z,97332.81
2022-11-08T07:46:10.119Z,97321.41
2022-11-08T07:48:38.204Z,97316.59
2022-11-08T07:51:06.750Z,97305.59
2022-11-08T07:53:34.842Z,97291.28
2022-11-08T07:56:02.926Z,97296.69
2022-11-08T07:58:30.997Z,97286.66
2022-11-08T08:01:07.240Z,97290.16
2022-11-08T08:03:35.571Z,97305.19
2022-11-08T08:06:03.653Z,97310.53
2022-11-08T08:08:31.724Z,97308.94
2022-11-08T08:11:01.619Z,97314.56
2022-11-08T08:13:30.542Z,97316.28
2022-11-08T08:16:01.084Z,97306.50
2022-11-08T08:18:30.437Z,97319.56
2022-11-08T08:20:59.226Z,97326.41
2022-11-08T08:23:27.670Z,97329.63
2022-11-08T08:25:56.345Z,97333.81
2022-11-08T08:28:24.542Z,97332.84
2022-11-08T08:30:52.664Z,97323.84
2022-11-08T08:33:29.516Z,97335.44
2022-11-08T08:36:01.266Z,97328.31
2022-11-08T08:38:34.045Z,97330.66
2022-11-08T08:41:05.719Z,97329.44
2022-11-08T08:43:33.918Z,97324.78
2022-11-08T08:46:04.761Z,97339.44
2022-11-08T08:48:33.811Z,97335.72
2022-11-08T08:51:02.141Z,97343.38
2022-11-08T08:53:30.336Z,97336.97
2022-11-08T08:55:58.423Z,97343.41
2022-11-08T08:58:26.510Z,97340.97
2022-11-08T09:03:42.700Z,97338.91
2022-11-08T09:06:11.034Z,97343.03
2022-11-08T09:08:39.101Z,97342.78
2022-11-08T09:11:07.438Z,97344.25
2022-11-08T09:13:35.868Z,97342.41
2022-11-08T09:16:04.189Z,97341.75
2022-11-08T09:18:32.785Z,97362.59
2022-11-08T09:21:01.713Z,97362.41
2022-11-08T09:23:30.115Z,97368.22
2022-11-08T09:26:00.615Z,97373.16
2022-11-08T09:28:32.411Z,97375.66
2022-11-08T09:31:10.100Z,97376.72
2022-11-08T09:33:40.451Z,97374.84
2022-11-08T09:36:13.457Z,97376.28
2022-11-08T09:38:42.167Z,97374.06
2022-11-08T09:41:34.572Z,97370.34
2022-11-08T09:44:23.417Z,97367.06
2022-11-08T09:47:03.258Z,97377.63
2022-11-08T09:49:41.670Z,97379.53
2022-11-08T09:52:16.586Z,97366.97
2022-11-08T09:54:47.435Z,97364.72
2022-11-08T09:57:55.959Z,97372.78
2022-11-08T10:00:24.031Z,97370.19
2022-11-08T10:02:52.234Z,97367.56
2022-11-08T10:05:21.035Z,97370.06
2022-11-08T10:08:20.941Z,97360.97
2022-11-08T10:11:16.245Z,97365.75
2022-11-08T10:14:11.807Z,97357.91
2022-11-08T10:16:58.126Z,97355.22
2022-11-08T10:19:38.090Z,97356.06
2022-11-08T10:22:29.703Z,97352.94
2022-11-08T10:25:23.225Z,97346.34
2022-11-08T10:28:53.716Z,97342.59
2022-11-08T10:31:22.295Z,97346.53
2022-11-08T10:33:57.429Z,97344.09
2022-11-08T10:37:00.672Z,97339.53
2022-11-08T10:39:34.395Z,97344.28
2022-11-08T10:42:22.534Z,97330.06
2022-11-08T10:44:50.729Z,97333.38
2022-11-08T10:47:38.757Z,97336.88
2022-11-08T10:50:29.608Z,97337.50
2022-11-08T10:53:04.889Z,97330.28
2022-11-08T10:55:38.720Z,97329.66
2022-11-08T10:58:30.333Z,97330.28
2022-11-08T11:01:17.624Z,97327.59
2022-11-08T11:03:47.619Z,97328.88
2022-11-08T11:06:33.070Z,97321.81
2022-11-08T11:09:19.811Z,97326.41
2022-11-08T11:11:59.035Z,97322.69
2022-11-08T11:14:27.136Z,97313.97
2022-11-08T11:17:14.804Z,97316.03
2022-11-08T11:19:55.941Z,97314.38
2022-11-08T11:22:35.185Z,97311.50
2022-11-08T11:25:15.743Z,97308.81
2022-11-08T11:27:44.283Z,97308.59
2022-11-08T11:30:34.832Z,97304.66
2022-11-08T11:33:27.229Z,97299.50
2022-11-08T11:36:13.192Z,97301.31
2022-11-08T11:39:06.378Z,97292.25
2022-11-08T11:41:47.918Z,97288.28
2022-11-08T11:44:19.580Z,97295.94
2022-11-08T11:47:15.020Z,97287.44
2022-11-08T11:49:45.505Z,97288.47
2022-11-08T11:52:19.226Z,97286.78
2022-11-08T11:54:49.613Z,97287.56
2022-11-08T11:57:55.026Z,97296.25
2022-11-08T12:00:23.342Z,97283.66
2022-11-08T12:03:21.395Z,97279.69
2022-11-08T12:06:28.429Z,97284.00
2022-11-08T12:09:20.106Z,97288.31
2022-11-08T12:12:16.844Z,97279.59
2022-11-08T12:14:56.689Z,97271.66
2022-11-08T12:17:49.249Z,97278.88
2022-11-08T12:20:56.002Z,97281.34
2022-11-08T12:24:01.263Z,97273.41
2022-11-08T12:26:50.000Z,97273.94
2022-11-08T12:29:34.051Z,97279.31
2022-11-08T12:32:37.651Z,97275.25
2022-11-08T12:35:35.848Z,97271.94
2022-11-08T12:38:47.349Z,97271.13
2022-11-08T12:41:24.343Z,97262.59
2022-11-08T12:44:16.515Z,97264.84
2022-11-08T12:47:09.822Z,97259.25
2022-11-08T12:50:12.587Z,97253.41
2022-11-08T12:53:07.044Z,97254.00
2022-11-08T12:55:42.237Z,97246.75
2022-11-08T12:58:46.048Z,97244.06
2022-11-08T13:01:17.797Z,97258.75
2022-11-08T13:03:51.454Z,97252.50
2022-11-08T13:07:13.986Z,97251.06
2022-11-08T13:10:25.302Z,97242.72
2022-11-08T13:13:49.088Z,97237.94
2022-11-08T13:16:27.609Z,97249.31
2022-11-08T13:19:01.550Z,97244.78
2022-11-08T13:21:38.630Z,97240.19
2022-11-08T13:24:18.840Z,97246.00
2022-11-08T13:27:23.302Z,97240.03
2022-11-08T13:29:53.314Z,97241.69
2022-11-08T13:32:44.185Z,97240.88
2022-11-08T13:35:47.285Z,97237.94
2022-11-08T13:38:24.008Z,97237.50
2022-11-08T13:41:16.007Z,97238.31
2022-11-08T13:43:44.798Z,97228.38
2022-11-08T13:46:28.082Z,97227.09
2022-11-08T13:49:03.743Z,97233.91
2022-11-08T13:51:33.377Z,97228.97
2022-11-08T13:54:21.379Z,97230.81
2022-11-08T13:57:01.961Z,97235.19
2022-11-08T13:59:33.146Z,97221.94
2022-11-08T14:02:24.635Z,97229.41
2022-11-08T14:04:54.052Z,97219.66
2022-11-08T14:07:47.911Z,97220.94
2022-11-08T14:10:35.202Z,97224.84
2022-11-08T14:13:27.163Z,97227.53
2022-11-08T14:16:12.887Z,97236.47
2022-11-08T14:18:40.965Z,97221.53
2022-11-08T14:21:15.658Z,97226.34
2022-11-08T14:23:49.605Z,97232.31
2022-11-08T14:26:25.634Z,97222.59
2022-11-08T14:28:53.931Z,97224.44
2022-11-08T14:31:34.866Z,97224.09
2022-11-08T14:34:02.935Z,97228.63
2022-11-08T14:36:32.833Z,97230.53
2022-11-08T14:39:18.421Z,97222.66
2022-11-08T14:41:52.023Z,97227.00
2022-11-08T14:44:20.370Z,97217.84
2022-11-08T14:46:49.521Z,97224.53
2022-11-08T14:49:36.549Z,97227.22
2022-11-08T14:52:32.917Z,97229.91
2022-11-08T14:55:09.077Z,97228.63
2022-11-08T14:57:43.277Z,97230.94
2022-11-08T15:00:16.760Z,97220.84
2022-11-08T15:02:59.728Z,97221.91
2022-11-08T15:05:45.330Z,97220.47
2022-11-08T15:09:02.854Z,97207.50
2022-11-08T15:11:34.914Z,97211.25
2022-11-08T15:14:17.034Z,97204.88
2022-11-08T15:16:49.800Z,97213.59
2022-11-08T15:19:46.433Z,97206.97
2022-11-08T15:22:33.610Z,97208.66
2022-11-08T15:25:02.041Z,97211.78
2022-11-08T15:27:30.350Z,97196.28
2022-11-08T15:30:08.643Z,97202.72
2022-11-08T15:32:39.731Z,97196.13
2022-11-08T15:35:21.128Z,97196.31
2022-11-08T15:37:50.880Z,97196.78
2022-11-08T15:40:28.455Z,97205.69
2022-11-08T15:42:57.375Z,97200.97
2022-11-08T15:45:32.195Z,97198.28
2022-11-08T15:48:09.249Z,97197.66
2022-11-08T15:50:37.580Z,97196.81
2022-11-08T15:53:06.853Z,97196.22
2022-11-08T15:56:05.655Z,97198.09
2022-11-08T15:58:40.108Z,97201.38
2022-11-08T16:01:20.636Z,97209.06
2022-11-08T16:03:49.103Z,97201.41
2022-11-08T16:06:17.665Z,97201.22
2022-11-08T16:08:45.747Z,97200.63
2022-11-08T16:11:23.071Z,97214.09
2022-11-08T16:13:52.236Z,97211.59
2022-11-08T16:16:20.325Z,97208.53
2022-11-08T16:18:48.397Z,97209.38
2022-11-08T16:21:16.724Z,97210.19
2022-11-08T16:23:44.803Z,97203.13
2022-11-08T16:26:17.449Z,97202.53
2022-11-08T16:28:45.527Z,97201.72
2022-11-08T16:31:17.955Z,97194.66
2022-11-08T16:33:47.224Z,97184.75
2022-11-08T16:36:23.833Z,97181.00
2022-11-08T16:38:57.661Z,97185.34
2022-11-08T16:41:26.222Z,97189.88
2022-11-08T16:43:55.141Z,97193.63
2022-11-08T16:46:24.089Z,97190.34
2022-11-08T16:48:57.216Z,97185.16
2022-11-08T16:51:25.998Z,97189.28
2022-11-08T16:53:54.672Z,97189.53
2022-11-08T16:56:23.122Z,97184.34
2022-11-08T16:58:51.210Z,97188.69
2022-11-08T17:01:33.198Z,97181.22
2022-11-08T17:04:01.283Z,97187.44
2022-11-08T17:06:29.427Z,97185.78
2022-11-08T17:08:58.060Z,97186.44
2022-11-08T17:11:26.139Z,97195.53
2022-11-08T17:13:55.316Z,97193.69
2022-11-08T17:16:23.514Z,97198.22
2022-11-08T17:18:53.476Z,97188.53
2022-11-08T17:21:44.828Z,97200.31
2022-11-08T17:24:10.907Z,97194.53
2022-11-08T17:26:38.995Z,97205.75
2022-11-08T17:29:08.270Z,97212.81
2022-11-08T17:31:36.478Z,97212.22
2022-11-08T17:34:04.670Z,97208.47
2022-11-08T17:36:32.762Z,97208.72
2022-11-08T17:39:00.835Z,97211.81
2022-11-08T17:41:30.736Z,97203.75
2022-11-08T17:43:58.802Z,97214.72
2022-11-08T17:46:26.890Z,97209.53
2022-11-08T17:48:55.106Z,97210.19
2022-11-08T17:51:23.169Z,97218.69
2022-11-08T17:53:51.252Z,97215.63
2022-11-08T17:56:19.463Z,97218.53
2022-11-08T17:58:47.535Z,97221.63
2022-11-08T18:01:16.658Z,97220.00
2022-11-08T18:03:44.780Z,97216.44
2022-11-08T18:06:14.802Z,97224.53
2022-11-08T18:08:43.228Z,97218.75
2022-11-08T18:11:11.322Z,97224.56
2022-11-08T18:13:39.512Z,97222.06
2022-11-08T18:16:27.871Z,97220.84
2022-11-08T18:18:57.396Z,97220.66
2022-11-08T18:21:25.613Z,97219.19
2022-11-08T18:23:53.677Z,97228.31
2022-11-08T18:26:21.770Z,97220.25
2022-11-08T18:28:49.843Z,97228.31
2022-11-08T18:31:20.926Z,97228.53
2022-11-08T18:33:49.740Z,97221.50
2022-11-08T18:36:22.869Z,97220.03
2022-11-08T18:38:52.375Z,97216.75
2022-11-08T18:41:28.508Z,97216.34
2022-11-08T18:43:58.989Z,97224.84
2022-11-08T18:46:32.820Z,97222.38
2022-11-08T18:49:01.041Z,97224.84
2022-11-08T18:51:29.125Z,97221.53
2022-11-08T18:53:57.548Z,97221.34
2022-11-08T18:56:25.882Z,97223.81
2022-11-08T18:58:54.438Z,97219.28
2022-11-08T19:01:22.581Z,97223.81
2022-11-08T19:03:50.597Z,97212.25
2022-11-08T19:06:19.762Z,97215.75
2022-11-08T19:08:47.852Z,97219.28
2022-11-08T19:11:20.575Z,97219.47
2022-11-08T19:13:49.558Z,97208.09
2022-11-08T19:16:20.774Z,97212.63
2022-11-08T19:18:49.896Z,97211.63
2022-11-08T19:21:22.096Z,97201.69
2022-11-08T19:23:51.591Z,97198.38
2022-11-08T19:26:23.392Z,97198.16
2022-11-08T19:28:54.344Z,97194.66
2022-11-08T19:31:25.213Z,97204.56
2022-11-08T19:33:54.720Z,97204.81
2022-11-08T19:36:25.919Z,97202.53
2022-11-08T19:38:55.937Z,97199.84
2022-11-08T19:41:28.825Z,97207.28
2022-11-08T19:43:57.249Z,97202.13
2022-11-08T19:46:32.541Z,97206.06
2022-11-08T19:49:03.730Z,97212.09
2022-11-08T19:51:34.324Z,97212.09
2022-11-08T19:54:08.664Z,97209.59
2022-11-08T19:57:03.161Z,97210.63
2022-11-08T19:59:25.460Z,97219.72
2022-11-08T20:01:53.602Z,97216.00
2022-11-08T20:04:21.616Z,97213.72
2022-11-08T20:06:49.764Z,97212.47
2022-11-08T20:09:17.780Z,97215.75
2022-11-08T20:11:46.463Z,97225.69
2022-11-08T20:14:15.028Z,97228.59
2022-11-08T20:16:47.853Z,97235.44
2022-11-08T20:19:18.870Z,97235.22
2022-11-08T20:21:47.091Z,97231.50
2022-11-08T20:24:15.996Z,97237.09
2022-11-08T20:26:44.560Z,97228.22
2022-11-08T20:29:14.559Z,97236.47
2022-11-08T20:31:42.884Z,97223.25
2022-11-08T20:34:13.186Z,97230.47
2022-11-08T20:36:44.135Z,97224.06
2022-11-08T20:39:14.810Z,97225.13
2022-11-08T20:41:43.384Z,97233.78
2022-11-08T20:44:11.815Z,97226.56
2022-11-08T20:46:40.407Z,97226.97
2022-11-08T20:49:09.072Z,97220.97
2022-11-08T20:51:37.517Z,97224.69
2022-11-08T20:54:05.835Z,97227.19
2022-11-08T20:56:34.278Z,97226.16
2022-11-08T20:59:02.739Z,97224.69
2022-11-08T21:01:33.096Z,97228.19
2022-11-08T21:04:02.000Z,97231.50
2022-11-08T21:06:35.662Z,97220.75
2022-11-08T21:11:54.691Z,97221.78
2022-11-08T21:14:23.979Z,97220.97
2022-11-08T21:17:20.922Z,97224.88
2022-11-08T21:19:41.009Z,97220.94
2022-11-08T21:22:15.274Z,97221.16
2022-11-08T21:24:45.333Z,97212.66
2022-11-08T21:27:14.505Z,97208.13
2022-11-08T21:29:42.700Z,97228.59
2022-11-08T21:32:10.799Z,97231.47
2022-11-08T21:34:45.279Z,97218.69
2022-11-08T21:37:13.672Z,97227.34
2022-11-08T21:39:42.122Z,97226.97
2022-11-08T21:42:10.325Z,97224.91
2022-11-08T21:44:38.281Z,97225.34
2022-11-08T21:47:06.370Z,97227.00
2022-11-08T21:49:34.438Z,97226.78
2022-11-08T21:52:03.752Z,97224.28
2022-11-08T21:54:31.803Z,97232.56
2022-11-08T21:57:00.011Z,97227.41
2022-11-08T21:59:28.088Z,97234.00
2022-11-08T22:01:56.183Z,97236.91
2022-11-08T22:04:24.374Z,97231.75
2022-11-08T22:06:52.657Z,97226.59
2022-11-08T22:09:20.905Z,97236.50
2022-11-08T22:11:49.228Z,97230.72
2022-11-08T22:14:17.302Z,97231.75
2022-11-08T22:16:45.399Z,97228.03
2022-11-08T22:19:14.016Z,97231.13
2022-11-08T22:21:44.320Z,97226.56
2022-11-08T22:24:20.176Z,97244.16
2022-11-08T22:26:50.433Z,97240.00
2022-11-08T22:29:19.010Z,97238.16
2022-11-08T22:31:47.459Z,97264.19
2022-11-08T22:34:16.241Z,97262.13
2022-11-08T22:36:46.091Z,97257.78
2022-11-08T22:39:17.085Z,97267.47
2022-11-08T22:41:47.239Z,97263.72
2022-11-08T22:44:16.503Z,97249.91
2022-11-08T22:46:46.632Z,97257.53
2022-11-08T22:49:15.420Z,97256.09
2022-11-08T22:51:44.475Z,97244.13
2022-11-08T22:54:12.658Z,97238.28
2022-11-08T22:56:41.112Z,97238.94
2022-11-08T22:59:09.666Z,97236.88
2022-11-08T23:01:37.767Z,97246.38
2022-11-08T23:04:06.077Z,97241.44
2022-11-08T23:06:34.253Z,97248.63
2022-11-08T23:09:02.250Z,97239.56
2022-11-08T23:11:49.046Z,97237.50
2022-11-08T23:14:37.459Z,97246.19
2022-11-08T23:17:08.300Z,97236.25
2022-11-08T23:19:54.818Z,97238.13
2022-11-08T23:22:41.737Z,97236.50
2022-11-08T23:25:10.317Z,97235.63
2022-11-08T23:27:56.747Z,97239.38
2022-11-08T23:30:43.294Z,97229.66
2022-11-08T23:33:11.499Z,97222.84
2022-11-08T23:35:59.511Z,97227.34
2022-11-08T23:38:27.708Z,97223.00
2022-11-08T23:41:18.483Z,97220.53
2022-11-08T23:44:05.152Z,97214.97
2022-11-08T23:46:33.709Z,97216.63
2022-11-08T23:49:02.643Z,97226.50
2022-11-08T23:51:31.582Z,97226.16
2022-11-08T23:53:59.637Z,97212.09
2022-11-08T23:56:28.941Z,97208.81
2022-11-08T23:58:59.523Z,97215.63
